Alvin, TX (77512)

6:21 PM CST on December 22, 2014 (GMT -0600)
Texas Gulf flat lands. | Change Station
CLOSE
Current Station
Personal Weather Station
Location: Alvin, TX
Elevation: 69 ft
Nearby Weather Stations

Elev 69 ft 29.42 °N, 95.25 °W | Updated 12 minutes ago

Partly Cloudy
Partly Cloudy
64.2 °F
Feels Like 64.2 °F
N
2.7
Wind Variable Wind from SW

Today
High -- | Low -- °F
--% Chance of Precip.
Yesterday
High -- | Low -- °F
Precip. -- in
7:11 AM 5:27 PM
New Moon, 1% visible
Pressure 29.66 in
Visibility 10.0 miles
Clouds Few 1700 ft
Dew Point 61 °F
Humidity 89%
Rainfall 0.00 in
Snow Depth Not available.
UV 0 out of 12
Pollen 7.00 out of 12
Air Quality Not available.
Flu Activity Not available.
METAR KLVJ 222353Z AUTO 19008G15KT 10SM FEW017 19/16 A2966 RMK AO2 SLP042 T01890156 10250 20189 53005

More Conditions Fewer Conditions

Pressure 29.66 in
Visibility 10.0 miles
Clouds Few 1700 ft
Dew Point 61 °F
Humidity 89%
Rainfall 0.00 in
Snow Depth Not available.
UV 0 out of 12
Pollen 7.00 out of 12
Air Quality Not available.
Flu Activity Not available.
METAR KLVJ 222353Z AUTO 19008G15KT 10SM FEW017 19/16 A2966 RMK AO2 SLP042 T01890156 10250 20189 53005

More Conditions Fewer Conditions

10-Day Weather Forecast

Almanac

Astronomy

Dec. 22, 2014 Rise Set
Actual Time
Civil Twilight
Nautical Twilight
Astronomical Twilight
Moon
Length of Visible Light
Length of Day
Tomorrow will be .
, % of the Moon is Illuminated

Today's Extremes

State Highs State Lows

Community

WunderPhotos

Upload Photos

1,779,738 photos uploaded!

WunderBlogs® & News

Nearby

Air Quality

  Air Quality AQ Index Pollutant
Not available.

Snow Depth

Station Depth Elevation

Earthquake Activity

City Distance Mag. Time & Date
Minimum magnitude displayed is 2.5.

Coastal Water Temperatures

Place Temperature

Nearby Weather Stations